Duck Lake, Canada
Current Conditions -  °F | °C
As of 1:00 AM on Monday 24 Nov 2014 (Local Time) from CYPA Reporting Station
Light Snow Light Snow  
Wind Chill: -22°   Ceiling: 700
Heat Index: -17°   Visibility: 12mi
Dew Point: -19°   Wind: 5mph
Humidity: 85%   Direction: 70°ENE
Pressure: 29.87"   Gusts: NA
Location:  52.8°N, 106.22°W
Report Text: CYPA 240700Z 07004KT 12SM -SN OVC007 M17/M19 A2987 RMK ST8 SLP156
Loading
Personal Weather Stations






























Interactive Weather Map New forecast layout! Learn more

10-Day Weather Forecast

Advertisements
Track Severe Weather on mobile